Terminal Aerodrome Forecast
Issued by NWS

Home | Current Version | Previous Version | Text Only | Print | Product List | Glossary On
Versions: 1 2 3 4 5 6 7 8 9 10 11 12 13
000
FTUS44 KLIX 311720
TAFHDC
TAF
KHDC 311720Z 3118/0118 09003KT P6SM SCT050
     FM010200 VRB03KT P6SM FEW050 FEW250=

USA.gov is the U.S. government's official web portal to all federal, state and local government web resources and services.